createdAt,value
2023-05-08T00:00:47.476Z,0.95
2023-05-08T00:03:21.502Z,1.02
2023-05-08T00:05:52.929Z,0.90
2023-05-08T00:08:27.516Z,1.05
2023-05-08T00:10:59.810Z,1.10
2023-05-08T00:13:31.244Z,1.20
2023-05-08T00:16:03.434Z,1.02
2023-05-08T00:18:34.396Z,1.05
2023-05-08T00:21:08.237Z,1.00
2023-05-08T00:23:39.750Z,1.10
2023-05-08T00:26:14.308Z,1.20
2023-05-08T00:28:45.539Z,1.98
2023-05-08T00:31:19.044Z,1.40
2023-05-08T00:33:53.336Z,1.35
2023-05-08T00:36:24.281Z,1.05
2023-05-08T00:38:55.270Z,1.10
2023-05-08T00:41:26.450Z,1.15
2023-05-08T00:43:57.406Z,1.13
2023-05-08T00:46:29.805Z,1.08
2023-05-08T00:49:02.408Z,1.10
2023-05-08T00:51:34.809Z,1.20
2023-05-08T00:54:06.455Z,0.85
2023-05-08T00:56:41.300Z,0.85
2023-05-08T00:59:16.195Z,0.68
2023-05-08T01:01:49.790Z,0.75
2023-05-08T01:04:24.150Z,0.85
2023-05-08T01:06:56.632Z,1.10
2023-05-08T01:09:27.089Z,0.70
2023-05-08T01:12:23.363Z,0.80
2023-05-08T01:15:03.631Z,0.73
2023-05-08T01:17:55.448Z,0.75
2023-05-08T01:20:34.604Z,0.55
2023-05-08T01:23:34.712Z,0.63
2023-05-08T01:26:24.784Z,1.00
2023-05-08T01:29:03.458Z,0.80
2023-05-08T01:31:36.560Z,0.90
2023-05-08T01:34:10.782Z,1.20
2023-05-08T01:37:04.688Z,1.20
2023-05-08T01:39:46.661Z,0.82
2023-05-08T01:42:41.529Z,0.73
2023-05-08T01:45:28.531Z,0.80
2023-05-08T01:48:12.551Z,0.85
2023-05-08T01:50:52.536Z,0.90
2023-05-08T01:53:46.853Z,0.80
2023-05-08T01:56:20.694Z,0.77
2023-05-08T01:58:54.780Z,0.80
2023-05-08T02:01:30.344Z,0.73
2023-05-08T02:04:01.788Z,0.82
2023-05-08T02:06:34.206Z,0.65
2023-05-08T02:09:05.202Z,0.80
2023-05-08T02:11:39.371Z,0.85
2023-05-08T02:14:10.981Z,0.80
2023-05-08T02:16:46.712Z,0.50
2023-05-08T02:19:20.135Z,0.50
2023-05-08T02:21:54.098Z,0.55
2023-05-08T02:24:25.433Z,0.50
2023-05-08T02:26:57.619Z,0.75
2023-05-08T02:29:31.043Z,0.70
2023-05-08T02:32:04.573Z,0.47
2023-05-08T02:34:36.374Z,0.50
2023-05-08T02:37:08.168Z,0.70
2023-05-08T02:39:41.678Z,0.63
2023-05-08T02:42:13.076Z,0.50
2023-05-08T02:44:43.291Z,0.88
2023-05-08T02:47:43.851Z,0.60
2023-05-08T02:50:28.124Z,0.60
2023-05-08T02:53:08.005Z,0.80
2023-05-08T02:56:03.407Z,0.60
2023-05-08T02:58:47.735Z,0.80
2023-05-08T03:01:32.636Z,0.60
2023-05-08T03:04:12.826Z,0.70
2023-05-08T03:06:46.910Z,0.70
2023-05-08T03:09:23.199Z,0.73
2023-05-08T03:12:01.756Z,0.50
2023-05-08T03:14:34.358Z,0.63
2023-05-08T03:17:09.568Z,0.50
2023-05-08T03:19:43.453Z,0.50
2023-05-08T03:22:17.907Z,0.55
2023-05-08T03:24:50.120Z,0.45
2023-05-08T03:27:22.694Z,0.50
2023-05-08T03:29:55.909Z,0.60
2023-05-08T03:32:28.463Z,0.60
2023-05-08T03:35:01.140Z,0.90
2023-05-08T03:37:32.678Z,0.60
2023-05-08T03:40:03.056Z,0.50
2023-05-08T03:42:34.727Z,0.68
2023-05-08T03:45:06.033Z,0.35
2023-05-08T03:47:38.156Z,0.30
2023-05-08T03:50:10.996Z,0.60
2023-05-08T03:52:43.166Z,0.45
2023-05-08T03:55:13.470Z,0.50
2023-05-08T03:58:02.235Z,0.45
2023-05-08T04:00:55.225Z,0.60
2023-05-08T04:03:56.305Z,0.70
2023-05-08T04:06:50.493Z,0.50
2023-05-08T04:09:46.885Z,0.60
2023-05-08T04:12:42.810Z,0.75
2023-05-08T04:15:25.837Z,0.88
2023-05-08T04:18:20.440Z,0.70
2023-05-08T04:23:23.627Z,0.82
2023-05-08T04:25:57.760Z,0.80
2023-05-08T04:28:28.704Z,0.93
2023-05-08T04:30:59.062Z,0.80
2023-05-08T04:33:29.880Z,0.98
2023-05-08T04:36:04.712Z,0.80
2023-05-08T04:38:39.066Z,0.80
2023-05-08T04:41:10.595Z,1.00
2023-05-08T04:43:40.845Z,1.13
2023-05-08T04:46:12.273Z,0.90
2023-05-08T04:48:42.728Z,0.93
2023-05-08T04:51:13.010Z,0.90
2023-05-08T04:53:43.294Z,0.85
2023-05-08T04:56:14.467Z,0.95
2023-05-08T04:58:45.060Z,0.80
2023-05-08T05:01:15.175Z,0.75
2023-05-08T05:03:45.547Z,0.90
2023-05-08T05:06:16.265Z,0.75
2023-05-08T05:08:48.299Z,0.65
2023-05-08T05:11:18.496Z,0.90
2023-05-08T05:13:48.240Z,1.00
2023-05-08T05:16:19.403Z,0.98
2023-05-08T05:18:49.820Z,0.90
2023-05-08T05:21:20.385Z,0.95
2023-05-08T05:23:50.510Z,1.10
2023-05-08T05:26:20.482Z,1.20
2023-05-08T05:28:52.993Z,0.85
2023-05-08T05:31:24.738Z,1.08
2023-05-08T05:33:56.190Z,0.70
2023-05-08T05:36:26.463Z,1.05
2023-05-08T05:38:56.486Z,0.90
2023-05-08T05:41:27.014Z,1.23
2023-05-08T05:43:58.002Z,0.90
2023-05-08T05:46:33.379Z,1.17
2023-05-08T05:49:06.023Z,0.98
2023-05-08T05:51:37.041Z,2.17
2023-05-08T05:54:09.155Z,1.90
2023-05-08T05:56:39.099Z,1.00
2023-05-08T05:59:08.889Z,0.90
2023-05-08T06:01:42.677Z,0.85
2023-05-08T06:04:13.182Z,1.00
2023-05-08T06:06:43.377Z,0.90
2023-05-08T06:09:13.125Z,1.05
2023-05-08T06:11:43.881Z,0.85
2023-05-08T06:14:14.738Z,1.13
2023-05-08T06:16:46.507Z,0.80
2023-05-08T06:19:16.963Z,0.90
2023-05-08T06:21:46.741Z,1.20
2023-05-08T06:24:16.777Z,0.82
2023-05-08T06:26:48.060Z,0.90
2023-05-08T06:29:19.224Z,1.10
2023-05-08T06:31:49.330Z,0.90
2023-05-08T06:34:19.188Z,0.80
2023-05-08T06:36:49.724Z,0.80
2023-05-08T06:39:20.140Z,1.13
2023-05-08T06:41:51.610Z,0.80
2023-05-08T06:44:30.960Z,1.05
2023-05-08T06:47:01.637Z,1.00
2023-05-08T06:49:32.657Z,0.93
2023-05-08T06:52:03.538Z,1.00
2023-05-08T06:54:34.074Z,1.00
2023-05-08T06:57:03.947Z,1.05
2023-05-08T06:59:34.032Z,0.90
2023-05-08T07:02:04.546Z,0.98
2023-05-08T07:04:35.124Z,1.10
2023-05-08T07:07:07.868Z,1.25
2023-05-08T07:09:38.001Z,0.90
2023-05-08T07:12:09.836Z,1.02
2023-05-08T07:14:40.357Z,1.40
2023-05-08T07:17:10.343Z,1.67
2023-05-08T07:19:40.624Z,1.10
2023-05-08T07:22:12.085Z,1.08
2023-05-08T07:24:43.689Z,1.27
2023-05-08T07:27:16.571Z,1.13
2023-05-08T07:29:46.688Z,1.05
2023-05-08T07:32:16.763Z,1.20
2023-05-08T07:34:47.345Z,1.30
2023-05-08T07:37:17.529Z,1.05
2023-05-08T07:39:48.737Z,1.00
2023-05-08T07:42:19.494Z,1.10
2023-05-08T07:44:54.690Z,0.80
2023-05-08T07:47:26.416Z,1.17
2023-05-08T07:49:56.800Z,1.08
2023-05-08T07:52:26.564Z,1.00
2023-05-08T07:54:57.476Z,1.30
2023-05-08T07:57:28.339Z,0.80
2023-05-08T08:00:04.799Z,0.90
2023-05-08T08:02:46.222Z,1.35
2023-05-08T08:05:17.404Z,0.95
2023-05-08T08:07:47.888Z,0.85
2023-05-08T08:10:19.018Z,0.60
2023-05-08T08:12:49.470Z,0.30
2023-05-08T08:15:19.804Z,0.40
2023-05-08T08:17:50.768Z,0.50
2023-05-08T08:20:20.827Z,0.47
2023-05-08T08:22:51.024Z,0.30
2023-05-08T08:25:21.002Z,0.47
2023-05-08T08:27:55.473Z,0.35
2023-05-08T08:30:26.512Z,0.50
2023-05-08T08:32:56.663Z,0.43
2023-05-08T08:35:30.433Z,0.98
2023-05-08T08:38:00.677Z,0.35
2023-05-08T08:40:31.343Z,0.65
2023-05-08T08:43:03.379Z,0.40
2023-05-08T08:45:33.296Z,1.00
2023-05-08T08:48:04.820Z,0.40
2023-05-08T08:50:38.048Z,0.50
2023-05-08T08:53:39.080Z,0.70
2023-05-08T08:56:10.836Z,0.40
2023-05-08T08:58:52.292Z,1.23
2023-05-08T09:01:23.789Z,0.60
2023-05-08T09:03:54.554Z,0.50
2023-05-08T09:06:25.438Z,1.13
2023-05-08T09:09:05.972Z,0.60
2023-05-08T09:11:38.088Z,0.50
2023-05-08T09:14:11.675Z,0.52
2023-05-08T09:16:42.003Z,0.35
2023-05-08T09:19:18.395Z,0.40
2023-05-08T09:21:49.310Z,0.43
2023-05-08T09:24:20.611Z,0.88
2023-05-08T09:26:50.758Z,0.40
2023-05-08T09:29:23.503Z,0.55
2023-05-08T09:31:55.680Z,0.30
2023-05-08T09:34:29.401Z,0.32
2023-05-08T09:37:11.273Z,0.20
2023-05-08T09:39:42.766Z,0.40
2023-05-08T09:42:13.374Z,0.43
2023-05-08T09:44:49.467Z,0.30
2023-05-08T09:47:26.798Z,0.50
2023-05-08T09:50:12.715Z,0.47
2023-05-08T09:52:49.877Z,0.60
2023-05-08T09:55:21.706Z,0.52
2023-05-08T09:57:59.982Z,0.50
2023-05-08T10:00:31.173Z,0.60
2023-05-08T10:03:06.293Z,0.60
2023-05-08T10:05:37.690Z,0.80
2023-05-08T10:08:24.687Z,0.70
2023-05-08T10:10:55.821Z,0.80
2023-05-08T10:13:27.248Z,0.80
2023-05-08T10:15:59.146Z,0.90
2023-05-08T10:18:36.920Z,1.20
2023-05-08T10:21:10.321Z,2.13
2023-05-08T10:23:44.920Z,0.93
2023-05-08T10:26:26.585Z,1.00
2023-05-08T10:29:05.573Z,2.03
2023-05-08T10:31:45.160Z,1.30
2023-05-08T10:34:24.401Z,1.23
2023-05-08T10:36:55.930Z,0.95
2023-05-08T10:39:27.272Z,1.30
2023-05-08T10:41:57.725Z,1.20
2023-05-08T10:44:31.746Z,1.35
2023-05-08T10:47:12.488Z,1.27
2023-05-08T10:49:49.461Z,1.00
2023-05-08T10:52:31.483Z,1.00
2023-05-08T10:57:37.745Z,0.90
2023-05-08T11:00:08.418Z,1.75
2023-05-08T11:02:39.529Z,1.20
2023-05-08T11:05:21.518Z,1.10
2023-05-08T11:07:57.800Z,1.15
2023-05-08T11:10:38.091Z,0.60
2023-05-08T11:13:12.871Z,1.40
2023-05-08T11:15:44.447Z,1.17
2023-05-08T11:18:19.055Z,0.90
2023-05-08T11:21:01.565Z,1.25
2023-05-08T11:23:36.369Z,2.67
2023-05-08T11:26:17.603Z,1.20
2023-05-08T11:28:58.989Z,1.05
2023-05-08T11:31:52.010Z,1.00
2023-05-08T11:34:45.038Z,2.28
2023-05-08T11:37:22.793Z,1.60
2023-05-08T11:39:54.059Z,1.52
2023-05-08T11:42:30.098Z,1.30
2023-05-08T11:45:15.514Z,2.00
2023-05-08T11:47:47.915Z,1.25
2023-05-08T11:50:19.039Z,1.27
2023-05-08T11:52:53.412Z,4.03
2023-05-08T11:55:23.718Z,1.00
2023-05-08T11:57:57.945Z,0.80
2023-05-08T12:00:29.258Z,0.80
2023-05-08T12:02:59.956Z,0.90
2023-05-08T12:05:31.288Z,0.60
2023-05-08T12:08:02.614Z,0.90
2023-05-08T12:10:40.296Z,0.50
2023-05-08T12:13:26.497Z,0.68
2023-05-08T12:15:59.815Z,0.70
2023-05-08T12:18:31.935Z,0.77
2023-05-08T12:21:03.573Z,0.70
2023-05-08T12:23:34.906Z,0.32
2023-05-08T12:26:05.468Z,0.70
2023-05-08T12:28:35.847Z,0.52
2023-05-08T12:31:06.688Z,0.80
2023-05-08T12:33:36.863Z,0.80
2023-05-08T12:36:08.796Z,0.80
2023-05-08T12:38:39.266Z,0.70
2023-05-08T12:41:11.215Z,0.60
2023-05-08T12:43:41.376Z,1.00
2023-05-08T12:46:15.364Z,1.90
2023-05-08T12:48:46.454Z,0.70
2023-05-08T12:51:16.743Z,0.70
2023-05-08T12:53:48.136Z,0.80
2023-05-08T12:56:24.045Z,0.70
2023-05-08T12:58:54.409Z,1.00
2023-05-08T13:01:25.013Z,0.90
2023-05-08T13:04:01.589Z,1.77
2023-05-08T13:06:33.835Z,1.10
2023-05-08T13:09:04.757Z,0.80
2023-05-08T13:11:36.597Z,0.80
2023-05-08T13:14:07.314Z,0.63
2023-05-08T13:16:49.141Z,0.73
2023-05-08T13:19:20.555Z,0.85
2023-05-08T13:21:54.071Z,0.93
2023-05-08T13:24:24.256Z,0.90
2023-05-08T13:26:54.000Z,0.90
2023-05-08T13:29:28.287Z,0.90
2023-05-08T13:31:58.949Z,0.60
2023-05-08T13:34:29.275Z,0.60
2023-05-08T13:36:59.522Z,0.73
2023-05-08T13:39:34.019Z,0.50
2023-05-08T13:42:05.620Z,0.80
2023-05-08T13:44:35.915Z,0.70
2023-05-08T13:47:05.926Z,0.80
2023-05-08T13:49:36.250Z,0.90
2023-05-08T13:52:06.749Z,0.75
2023-05-08T13:54:36.924Z,0.95
2023-05-08T13:57:07.163Z,0.73
2023-05-08T13:59:37.774Z,0.77
2023-05-08T14:02:07.929Z,9.05
2023-05-08T14:04:38.704Z,0.98
2023-05-08T14:07:09.016Z,0.80
2023-05-08T14:09:39.822Z,0.90
2023-05-08T14:12:09.669Z,0.75
2023-05-08T14:14:39.997Z,0.60
2023-05-08T14:17:12.046Z,0.70
2023-05-08T14:19:42.564Z,0.70
2023-05-08T14:22:13.157Z,1.42
2023-05-08T14:24:43.219Z,1.10
2023-05-08T14:27:13.904Z,0.75
2023-05-08T14:29:45.615Z,1.13
2023-05-08T14:32:15.581Z,0.70
2023-05-08T14:34:45.612Z,0.98
2023-05-08T14:37:15.922Z,0.82
2023-05-08T14:39:46.903Z,1.52
2023-05-08T14:42:23.436Z,0.90
2023-05-08T14:44:54.265Z,0.70
2023-05-08T14:47:24.687Z,1.15
2023-05-08T14:49:55.144Z,2.08
2023-05-08T14:52:25.730Z,0.95
2023-05-08T14:54:56.557Z,0.90
2023-05-08T14:57:26.461Z,0.93
2023-05-08T14:59:57.918Z,0.98
2023-05-08T15:02:28.657Z,0.80
2023-05-08T15:04:59.133Z,1.45
2023-05-08T15:07:30.244Z,1.05
2023-05-08T15:10:00.222Z,0.68
2023-05-08T15:12:30.166Z,1.52
2023-05-08T15:15:02.699Z,0.90
2023-05-08T15:17:37.502Z,2.35
2023-05-08T15:20:10.101Z,1.17
2023-05-08T15:22:40.650Z,0.90
2023-05-08T15:25:10.885Z,0.60
2023-05-08T15:27:44.101Z,0.77
2023-05-08T15:30:15.077Z,0.70
2023-05-08T15:32:45.571Z,0.70
2023-05-08T15:35:15.719Z,0.70
2023-05-08T15:37:47.277Z,0.73
2023-05-08T15:40:17.806Z,0.85
2023-05-08T15:42:48.159Z,0.70
2023-05-08T15:45:18.825Z,0.70
2023-05-08T15:47:49.505Z,0.60
2023-05-08T15:50:19.951Z,0.90
2023-05-08T15:52:50.844Z,0.80
2023-05-08T15:55:21.418Z,0.80
2023-05-08T15:57:52.983Z,0.60
2023-05-08T16:00:27.248Z,0.65
2023-05-08T16:03:00.510Z,0.80
2023-05-08T16:05:30.605Z,0.80
2023-05-08T16:08:02.508Z,0.70
2023-05-08T16:10:34.461Z,0.80
2023-05-08T16:13:04.731Z,0.65
2023-05-08T16:15:34.802Z,1.35
2023-05-08T16:18:05.652Z,0.90
2023-05-08T16:20:36.396Z,0.65
2023-05-08T16:23:08.652Z,0.70
2023-05-08T16:25:38.693Z,0.70
2023-05-08T16:28:08.495Z,0.80
2023-05-08T16:30:40.729Z,0.90
2023-05-08T16:33:13.727Z,0.90
2023-05-08T16:35:45.331Z,0.70
2023-05-08T16:38:15.727Z,0.60
2023-05-08T16:40:46.702Z,0.50
2023-05-08T16:43:17.461Z,0.45
2023-05-08T16:45:47.646Z,0.60
2023-05-08T16:48:18.145Z,0.60
2023-05-08T16:50:48.664Z,2.95
2023-05-08T16:53:19.028Z,1.42
2023-05-08T16:55:50.332Z,0.93
2023-05-08T16:58:20.095Z,0.70
2023-05-08T17:00:50.325Z,0.60
2023-05-08T17:03:22.427Z,1.65
2023-05-08T17:05:53.763Z,1.40
2023-05-08T17:08:23.554Z,0.75
2023-05-08T17:10:55.294Z,2.63
2023-05-08T17:13:26.191Z,0.80
2023-05-08T17:15:56.511Z,0.80
2023-05-08T17:18:27.808Z,0.73
2023-05-08T17:20:57.608Z,0.70
2023-05-08T17:23:27.612Z,0.50
2023-05-08T17:26:02.251Z,0.50
2023-05-08T17:28:34.113Z,1.83
2023-05-08T17:31:05.121Z,0.90
2023-05-08T17:33:35.242Z,0.90
2023-05-08T17:36:05.136Z,0.70
2023-05-08T17:38:36.886Z,0.85
2023-05-08T17:41:08.580Z,4.05
2023-05-08T17:43:39.687Z,0.70
2023-05-08T17:46:09.663Z,0.80
2023-05-08T17:48:40.046Z,0.55
2023-05-08T17:51:15.083Z,3.15
2023-05-08T17:56:17.860Z,0.63
2023-05-08T17:58:48.638Z,0.95
2023-05-08T18:01:18.612Z,0.90
2023-05-08T18:03:49.484Z,1.00
2023-05-08T18:06:21.847Z,0.82
2023-05-08T18:08:51.951Z,0.90
2023-05-08T18:11:26.318Z,1.77
2023-05-08T18:13:57.701Z,0.90
2023-05-08T18:16:28.253Z,1.05
2023-05-08T18:18:58.488Z,0.93
2023-05-08T18:21:29.912Z,1.08
2023-05-08T18:24:00.871Z,2.95
2023-05-08T18:26:31.950Z,1.00
2023-05-08T18:29:02.450Z,1.30
2023-05-08T18:31:33.748Z,0.70
2023-05-08T18:34:04.523Z,1.23
2023-05-08T18:36:34.579Z,1.50
2023-05-08T18:39:05.192Z,1.00
2023-05-08T18:41:36.372Z,1.27
2023-05-08T18:44:07.025Z,1.60
2023-05-08T18:46:37.787Z,1.10
2023-05-08T18:49:08.217Z,0.90
2023-05-08T18:51:38.574Z,1.23
2023-05-08T18:54:09.680Z,2.38
2023-05-08T18:56:42.000Z,1.10
2023-05-08T18:59:12.208Z,1.33
2023-05-08T19:01:42.447Z,1.15
2023-05-08T19:04:13.046Z,2.10
2023-05-08T19:06:44.425Z,1.30
2023-05-08T19:09:15.579Z,1.15
2023-05-08T19:11:45.728Z,1.20
2023-05-08T19:14:15.572Z,1.33
2023-05-08T19:16:46.387Z,1.27
2023-05-08T19:19:18.162Z,1.27
2023-05-08T19:21:49.332Z,1.50
2023-05-08T19:24:21.773Z,1.20
2023-05-08T19:26:53.093Z,1.77
2023-05-08T19:29:23.685Z,1.45
2023-05-08T19:31:53.943Z,1.50
2023-05-08T19:34:26.155Z,1.40
2023-05-08T19:36:57.806Z,1.50
2023-05-08T19:39:28.341Z,1.40
2023-05-08T19:42:00.181Z,1.10
2023-05-08T19:44:32.720Z,1.35
2023-05-08T19:47:03.899Z,1.20
2023-05-08T19:49:35.555Z,1.85
2023-05-08T19:52:06.514Z,1.70
2023-05-08T19:54:36.789Z,1.33
2023-05-08T19:57:06.654Z,1.58
2023-05-08T19:59:37.296Z,1.92
2023-05-08T20:02:15.620Z,1.48
2023-05-08T20:05:14.536Z,1.77
2023-05-08T20:07:36.720Z,2.58
2023-05-08T20:10:07.731Z,1.55
2023-05-08T20:12:38.997Z,1.70
2023-05-08T20:15:09.868Z,1.70
2023-05-08T20:17:41.330Z,1.10
2023-05-08T20:20:13.504Z,1.75
2023-05-08T20:22:44.436Z,1.52
2023-05-08T20:25:14.277Z,1.40
2023-05-08T20:27:45.081Z,2.45
2023-05-08T20:30:16.273Z,1.40
2023-05-08T20:32:48.264Z,1.90
2023-05-08T20:35:19.747Z,3.08
2023-05-08T20:37:50.488Z,1.30
2023-05-08T20:40:20.249Z,1.13
2023-05-08T20:42:50.786Z,1.83
2023-05-08T20:45:23.352Z,2.30
2023-05-08T20:47:53.524Z,1.73
2023-05-08T20:50:24.012Z,1.70
2023-05-08T20:52:54.991Z,1.13
2023-05-08T20:55:25.375Z,1.50
2023-05-08T20:57:55.379Z,1.38
2023-05-08T21:00:25.512Z,1.60
2023-05-08T21:02:56.303Z,1.88
2023-05-08T21:05:28.240Z,2.20
2023-05-08T21:08:03.427Z,2.03
2023-05-08T21:10:33.661Z,1.95
2023-05-08T21:13:03.574Z,1.70
2023-05-08T21:15:33.887Z,2.28
2023-05-08T21:18:04.299Z,1.98
2023-05-08T21:20:35.564Z,1.60
2023-05-08T21:23:06.254Z,1.83
2023-05-08T21:25:36.384Z,1.52
2023-05-08T21:28:06.947Z,1.77
2023-05-08T21:30:37.759Z,1.92
2023-05-08T21:33:07.569Z,2.00
2023-05-08T21:35:38.099Z,2.03
2023-05-08T21:38:09.997Z,1.88
2023-05-08T21:40:41.800Z,2.15
2023-05-08T21:43:13.288Z,1.90
2023-05-08T21:45:43.218Z,2.03
2023-05-08T21:48:12.947Z,2.10
2023-05-08T21:50:43.406Z,2.25
2023-05-08T21:53:13.664Z,2.05
2023-05-08T21:55:45.828Z,2.20
2023-05-08T21:58:16.020Z,2.28
2023-05-08T22:00:45.907Z,2.38
2023-05-08T22:03:16.891Z,2.13
2023-05-08T22:05:47.883Z,2.03
2023-05-08T22:08:17.954Z,1.88
2023-05-08T22:10:47.975Z,2.58
2023-05-08T22:13:19.738Z,2.42
2023-05-08T22:15:50.852Z,2.28
2023-05-08T22:18:21.537Z,2.80
2023-05-08T22:20:51.501Z,2.70
2023-05-08T22:23:21.841Z,2.80
2023-05-08T22:25:53.663Z,2.50
2023-05-08T22:28:25.823Z,2.50
2023-05-08T22:30:58.947Z,2.85
2023-05-08T22:33:33.793Z,3.13
2023-05-08T22:36:03.889Z,3.42
2023-05-08T22:38:34.167Z,3.60
2023-05-08T22:41:07.012Z,4.00
2023-05-08T22:43:38.091Z,4.45
2023-05-08T22:46:08.694Z,4.10
2023-05-08T22:48:40.274Z,3.65
2023-05-08T22:51:12.137Z,3.90
2023-05-08T22:53:42.201Z,4.25
2023-05-08T22:56:12.343Z,3.70
2023-05-08T22:58:43.455Z,3.58
2023-05-08T23:01:16.996Z,3.80
2023-05-08T23:03:47.298Z,3.55
2023-05-08T23:06:17.129Z,4.10
2023-05-08T23:08:48.184Z,4.53
2023-05-08T23:11:18.935Z,5.03
2023-05-08T23:13:51.363Z,4.85
2023-05-08T23:16:22.115Z,5.20
2023-05-08T23:18:52.580Z,4.95
2023-05-08T23:21:23.512Z,4.43
2023-05-08T23:23:57.165Z,4.78
2023-05-08T23:26:27.605Z,4.50
2023-05-08T23:28:57.660Z,4.63
2023-05-08T23:31:29.965Z,4.70
2023-05-08T23:34:01.166Z,4.22
2023-05-08T23:36:33.319Z,3.83
2023-05-08T23:39:04.715Z,4.03
2023-05-08T23:41:36.061Z,4.20
2023-05-08T23:44:07.380Z,4.35
2023-05-08T23:46:38.160Z,5.22
2023-05-08T23:49:09.553Z,5.68
2023-05-08T23:51:41.617Z,5.40
2023-05-08T23:54:13.604Z,5.28
2023-05-08T23:56:45.865Z,5.70
2023-05-08T23:59:16.482Z,6.00
